Time;durP1;ratioP1;P1;durP2;ratioP2;P2;SDS_P1;SDS_P2;PMS_P1;PMS_P2;Temp;Humidity;BMP_temperature;BMP_pressure;BME280_temperature;BME280_humidity;BME280_pressure;Samples;Min_cycle;Max_cycle;Signal;HPM_P1;HPM_P2
2023/08/24 00:01:12;;;;;;;17.50;12.50;;;18.50;99.90;;;;;;5057187;28;20147;-71
2023/08/24 00:03:38;;;;;;;24.27;12.40;;;18.50;99.90;;;;;;5057361;28;20343;-71
2023/08/24 00:06:04;;;;;;;23.05;12.75;;;18.50;99.90;;;;;;5056766;28;20025;-71
2023/08/24 00:08:30;;;;;;;19.33;12.68;;;18.40;99.90;;;;;;5056731;28;20051;-70
2023/08/24 00:10:55;;;;;;;20.30;12.25;;;18.30;99.90;;;;;;5057115;28;20082;-71
2023/08/24 00:13:21;;;;;;;17.48;11.88;;;18.30;99.90;;;;;;5056394;28;20377;-71
2023/08/24 00:15:47;;;;;;;19.15;11.65;;;18.10;99.90;;;;;;5056586;28;20021;-71
2023/08/24 00:18:13;;;;;;;19.23;11.80;;;18.10;99.90;;;;;;5056621;28;20036;-71
2023/08/24 00:20:38;;;;;;;20.90;12.65;;;18.10;99.90;;;;;;5055813;28;20025;-70
2023/08/24 00:23:04;;;;;;;22.48;12.55;;;18.10;99.90;;;;;;5057023;28;20319;-70
2023/08/24 00:25:30;;;;;;;15.68;11.52;;;18.00;99.90;;;;;;5056945;28;20047;-71
2023/08/24 00:27:56;;;;;;;19.77;12.27;;;17.90;99.90;;;;;;5056128;28;20469;-71
2023/08/24 00:30:23;;;;;;;18.88;12.52;;;17.90;99.90;;;;;;5056495;28;20029;-70
2023/08/24 00:32:49;;;;;;;18.42;12.70;;;17.90;99.90;;;;;;5056305;28;20143;-70
2023/08/24 00:35:15;;;;;;;18.67;12.02;;;17.90;99.90;;;;;;5056503;28;20111;-71
2023/08/24 00:37:41;;;;;;;16.52;11.60;;;17.90;99.90;;;;;;5056723;28;20100;-71
2023/08/24 00:40:11;;;;;;;19.63;12.57;;;17.70;99.90;;;;;;5055473;28;20031;-70
2023/08/24 00:42:40;;;;;;;19.33;11.32;;;17.60;99.90;;;;;;5056601;28;20027;-70
2023/08/24 00:45:09;;;;;;;22.03;13.10;;;17.60;99.90;;;;;;5055566;28;20385;-70
2023/08/24 00:47:35;;;;;;;16.35;12.27;;;17.50;99.90;;;;;;5056404;28;20260;-70
2023/08/24 00:50:01;;;;;;;17.60;12.02;;;17.50;99.90;;;;;;5056502;28;20053;-71
2023/08/24 00:52:31;;;;;;;35.92;13.70;;;17.60;99.90;;;;;;5056197;28;20392;-70
2023/08/24 00:54:57;;;;;;;18.02;12.45;;;17.60;99.90;;;;;;5055866;28;20013;-70
2023/08/24 00:57:23;;;;;;;21.38;12.73;;;17.60;99.90;;;;;;5055622;28;20013;-70
2023/08/24 00:59:49;;;;;;;25.70;13.20;;;17.60;99.90;;;;;;5056353;28;20425;-70
2023/08/24 01:02:15;;;;;;;19.17;12.25;;;17.60;99.90;;;;;;5056475;28;20025;-70
2023/08/24 01:04:43;;;;;;;21.27;12.70;;;17.60;99.90;;;;;;5055737;28;20117;-71
2023/08/24 01:07:10;;;;;;;16.95;11.80;;;17.60;99.90;;;;;;5055578;28;20021;-70
2023/08/24 01:09:36;;;;;;;25.05;12.85;;;17.60;99.90;;;;;;5055578;28;20021;-71
2023/08/24 01:12:11;;;;;;;19.88;11.65;;;17.70;99.90;;;;;;5055774;28;20404;-70
2023/08/24 01:15:00;;;;;;;21.38;12.93;;;17.60;99.90;;;;;;5056065;28;20039;-71
2023/08/24 01:17:29;;;;;;;20.27;12.65;;;17.50;99.90;;;;;;5054807;28;20033;-71
2023/08/24 01:19:56;;;;;;;17.60;12.68;;;17.50;99.90;;;;;;5055332;28;20453;-71
2023/08/24 01:22:27;;;;;;;19.05;12.75;;;17.50;99.90;;;;;;5055601;28;20032;-71
2023/08/24 01:25:15;;;;;;;21.75;11.93;;;17.40;99.90;;;;;;5055217;28;20369;-71
2023/08/24 01:27:43;;;;;;;17.85;12.07;;;17.40;99.90;;;;;;5055197;28;20029;-70
2023/08/24 01:30:09;;;;;;;17.25;12.48;;;17.30;99.90;;;;;;5055421;28;20025;-71
2023/08/24 01:32:36;;;;;;;19.63;13.10;;;17.20;99.90;;;;;;5055062;28;20520;-71
2023/08/24 01:35:05;;;;;;;17.42;12.75;;;17.30;99.90;;;;;;5055104;28;20021;-70
2023/08/24 01:37:32;;;;;;;19.00;13.55;;;17.20;99.90;;;;;;5055259;28;20021;-70
2023/08/24 01:40:13;;;;;;;18.85;13.18;;;17.20;99.90;;;;;;5055605;28;20063;-71
2023/08/24 01:42:59;;;;;;;23.42;14.43;;;17.20;99.90;;;;;;5054966;28;20078;-70
2023/08/24 01:45:29;;;;;;;22.05;13.50;;;17.20;99.90;;;;;;5055753;28;20013;-71
2023/08/24 01:47:55;;;;;;;22.65;14.02;;;17.20;99.90;;;;;;5054865;28;20037;-71
2023/08/24 01:50:22;;;;;;;22.02;13.70;;;17.10;99.90;;;;;;5054623;28;20052;-71
2023/08/24 01:52:48;;;;;;;17.58;13.27;;;17.20;99.90;;;;;;5054734;28;20077;-70
2023/08/24 01:55:15;;;;;;;23.10;13.23;;;17.20;99.90;;;;;;5054903;28;20035;-71
2023/08/24 01:57:40;;;;;;;20.52;12.90;;;17.30;99.90;;;;;;5054885;28;20020;-71
2023/08/24 02:00:07;;;;;;;18.75;13.55;;;17.20;99.90;;;;;;5055175;28;20527;-70
2023/08/24 02:02:35;;;;;;;19.75;12.98;;;17.20;99.90;;;;;;5054802;28;20028;-71
2023/08/24 02:05:00;;;;;;;25.40;13.93;;;17.20;99.90;;;;;;5054543;28;20464;-71
2023/08/24 02:07:26;;;;;;;19.90;13.65;;;17.20;99.90;;;;;;5053207;28;20021;-71
2023/08/24 02:09:51;;;;;;;20.17;13.63;;;17.20;99.90;;;;;;5054356;28;20461;-71
2023/08/24 02:12:17;;;;;;;21.30;13.60;;;17.20;99.90;;;;;;5053109;28;20021;-71
2023/08/24 02:14:43;;;;;;;18.98;13.10;;;17.20;99.90;;;;;;5054057;28;20373;-71
2023/08/24 02:17:08;;;;;;;20.67;13.88;;;17.20;99.90;;;;;;5054548;28;20024;-70
2023/08/24 02:19:34;;;;;;;18.60;13.13;;;17.10;99.90;;;;;;5054173;28;20435;-70
2023/08/24 02:22:00;;;;;;;20.60;12.85;;;17.10;99.90;;;;;;5054208;28;20033;-70
2023/08/24 02:24:25;;;;;;;22.10;13.55;;;17.10;99.90;;;;;;5054424;28;20365;-70
2023/08/24 02:26:51;;;;;;;21.20;13.77;;;17.10;99.90;;;;;;5054189;28;20104;-71
2023/08/24 02:29:17;;;;;;;20.85;13.93;;;17.00;99.90;;;;;;5054170;28;20032;-70
2023/08/24 02:31:42;;;;;;;23.02;14.02;;;17.00;99.90;;;;;;5054079;28;20032;-71
2023/08/24 02:34:08;;;;;;;18.58;13.10;;;17.00;99.90;;;;;;5054094;28;20017;-71
2023/08/24 02:36:33;;;;;;;26.27;13.95;;;17.00;99.90;;;;;;5054330;28;20092;-71
2023/08/24 02:39:00;;;;;;;22.55;14.05;;;16.90;99.90;;;;;;5054481;28;20021;-71
2023/08/24 02:41:27;;;;;;;25.45;13.25;;;16.90;99.90;;;;;;5053262;28;20029;-72
2023/08/24 02:43:52;;;;;;;28.65;13.88;;;16.90;99.90;;;;;;5053910;28;20024;-71
2023/08/24 02:46:20;;;;;;;19.77;13.00;;;16.90;99.90;;;;;;5054165;28;20025;-71
2023/08/24 02:48:46;;;;;;;22.70;14.55;;;16.90;99.90;;;;;;5053635;28;20158;-71
2023/08/24 02:51:13;;;;;;;22.60;13.43;;;16.90;99.90;;;;;;5053855;28;20107;-71
2023/08/24 02:53:39;;;;;;;22.50;14.02;;;16.90;99.90;;;;;;5053850;28;20017;-71
2023/08/24 02:56:05;;;;;;;22.45;13.75;;;16.80;99.90;;;;;;5053826;28;20346;-72
2023/08/24 02:58:31;;;;;;;23.35;14.13;;;16.70;99.90;;;;;;5054454;28;20442;-71
2023/08/24 03:00:57;;;;;;;23.75;14.38;;;16.70;99.90;;;;;;5056226;28;20021;-72
2023/08/24 03:03:24;;;;;;;22.17;14.30;;;16.60;99.90;;;;;;5053365;28;20553;-71
2023/08/24 03:05:56;;;;;;;20.30;13.60;;;16.70;99.90;;;;;;5053636;28;20029;-71
2023/08/24 03:08:22;;;;;;;23.42;14.15;;;16.60;99.90;;;;;;5054040;28;20024;-72
2023/08/24 03:10:48;;;;;;;27.35;13.23;;;16.60;99.90;;;;;;5053685;28;20314;-71
2023/08/24 03:13:14;;;;;;;19.88;13.13;;;16.60;99.90;;;;;;5053564;28;20100;-72
2023/08/24 03:15:39;;;;;;;27.45;13.43;;;16.60;99.90;;;;;;5053789;28;20099;-71
2023/08/24 03:18:05;;;;;;;22.38;13.30;;;16.60;99.90;;;;;;5054199;28;20068;-71
2023/08/24 03:20:31;;;;;;;20.58;13.60;;;16.60;99.90;;;;;;5054058;28;20055;-71
2023/08/24 03:22:57;;;;;;;23.45;14.07;;;16.70;99.90;;;;;;5053466;28;20028;-71
2023/08/24 03:25:23;;;;;;;20.92;13.23;;;16.70;99.90;;;;;;5053435;28;20082;-72
2023/08/24 03:27:49;;;;;;;21.08;13.18;;;16.80;99.90;;;;;;5053450;28;20396;-71
2023/08/24 03:30:14;;;;;;;23.30;13.77;;;16.80;99.90;;;;;;5053344;28;20059;-71
2023/08/24 03:32:41;;;;;;;25.58;14.10;;;16.80;99.90;;;;;;5053103;28;20032;-71
2023/08/24 03:35:07;;;;;;;24.85;14.35;;;16.70;99.90;;;;;;5053380;28;20086;-71
2023/08/24 03:37:33;;;;;;;19.15;13.32;;;16.70;99.90;;;;;;5052097;28;20418;-71
2023/08/24 03:39:59;;;;;;;20.60;13.65;;;16.70;99.90;;;;;;5053346;28;20017;-71
2023/08/24 03:42:24;;;;;;;22.60;13.63;;;16.70;99.90;;;;;;5053614;28;20032;-71
2023/08/24 03:44:50;;;;;;;21.50;13.45;;;16.70;99.90;;;;;;5052986;28;20021;-71
2023/08/24 03:47:16;;;;;;;18.05;12.75;;;16.70;99.90;;;;;;5053001;28;20025;-71
2023/08/24 03:49:43;;;;;;;23.70;13.32;;;16.80;99.90;;;;;;5053281;28;20101;-71
2023/08/24 03:52:09;;;;;;;23.08;13.35;;;16.80;99.90;;;;;;5053191;28;20115;-71
2023/08/24 03:54:34;;;;;;;21.63;13.35;;;16.80;99.90;;;;;;5053187;28;20100;-71
2023/08/24 03:57:00;;;;;;;19.90;12.85;;;16.80;99.90;;;;;;5053193;28;20456;-71
2023/08/24 03:59:26;;;;;;;19.10;13.60;;;16.70;99.90;;;;;;5053153;28;20021;-71
2023/08/24 04:01:52;;;;;;;21.42;13.48;;;16.70;99.90;;;;;;5053158;28;20066;-71
2023/08/24 04:04:18;;;;;;;23.27;13.70;;;16.60;99.90;;;;;;5053559;28;20028;-71
2023/08/24 04:06:43;;;;;;;21.52;13.07;;;16.40;99.90;;;;;;5053627;28;20323;-71
2023/08/24 04:09:09;;;;;;;19.30;12.93;;;16.40;99.90;;;;;;5053356;28;20017;-71
2023/08/24 04:11:34;;;;;;;25.88;13.20;;;16.40;99.90;;;;;;5053261;28;20112;-71
2023/08/24 04:14:01;;;;;;;21.05;12.38;;;16.40;99.90;;;;;;5053072;28;20027;-71
2023/08/24 04:16:26;;;;;;;21.35;14.25;;;16.40;99.90;;;;;;5056284;28;20469;-72
2023/08/24 04:18:52;;;;;;;19.48;12.85;;;16.50;99.90;;;;;;5056374;28;20025;-71
2023/08/24 04:21:18;;;;;;;18.10;12.82;;;16.50;99.90;;;;;;5056894;28;20373;-71
2023/08/24 04:23:45;;;;;;;20.60;12.90;;;16.40;99.90;;;;;;5056850;28;20025;-71
2023/08/24 04:26:14;;;;;;;23.08;12.75;;;16.40;99.90;;;;;;5056437;28;20445;-71
2023/08/24 04:28:39;;;;;;;19.77;13.00;;;16.40;99.90;;;;;;5056489;28;20029;-71
2023/08/24 04:31:05;;;;;;;20.25;13.18;;;16.50;99.90;;;;;;5056561;28;20043;-71
2023/08/24 04:33:31;;;;;;;18.33;12.27;;;16.50;99.90;;;;;;5056288;28;20113;-71
2023/08/24 04:35:58;;;;;;;22.00;13.25;;;16.60;99.90;;;;;;5056271;28;20464;-71
2023/08/24 04:38:23;;;;;;;18.70;12.18;;;16.60;99.90;;;;;;5056525;28;20025;-71
2023/08/24 04:40:53;;;;;;;19.25;12.32;;;16.70;99.90;;;;;;5056201;28;20088;-71
2023/08/24 04:43:23;;;;;;;19.13;13.07;;;16.80;99.90;;;;;;5056648;28;20057;-71
2023/08/24 04:45:53;;;;;;;18.52;11.75;;;16.90;99.90;;;;;;5056700;28;20025;-71
2023/08/24 04:48:23;;;;;;;16.95;12.05;;;17.00;99.90;;;;;;5056175;28;20025;-71
2023/08/24 04:50:49;;;;;;;20.42;12.45;;;17.10;99.90;;;;;;5055801;28;20040;-71
2023/08/24 04:53:17;;;;;;;21.77;12.52;;;17.10;99.90;;;;;;5056149;28;20032;-71
2023/08/24 04:55:44;;;;;;;18.65;12.63;;;17.00;99.90;;;;;;5055965;28;20118;-70
2023/08/24 04:58:10;;;;;;;18.75;13.13;;;16.90;99.90;;;;;;5056125;28;20028;-70
2023/08/24 05:00:37;;;;;;;19.13;12.40;;;16.90;99.90;;;;;;5055754;28;20074;-69
2023/08/24 05:03:06;;;;;;;17.23;12.52;;;16.90;99.90;;;;;;5055716;28;20029;-69
2023/08/24 05:05:33;;;;;;;18.08;11.95;;;16.90;99.90;;;;;;5056268;28;20045;-69
2023/08/24 05:08:00;;;;;;;18.85;12.55;;;16.90;99.90;;;;;;5055647;28;20032;-69
2023/08/24 05:10:26;;;;;;;26.05;13.27;;;16.80;99.90;;;;;;5055593;28;20033;-69
2023/08/24 05:12:51;;;;;;;17.92;11.73;;;16.80;99.90;;;;;;5055610;28;20142;-69
2023/08/24 05:15:17;;;;;;;20.92;12.35;;;16.80;99.90;;;;;;5056088;28;20017;-69
2023/08/24 05:17:43;;;;;;;16.83;12.20;;;16.80;99.90;;;;;;5055342;28;20032;-69
2023/08/24 05:20:12;;;;;;;18.15;12.18;;;16.90;99.90;;;;;;5055445;28;20037;-70
2023/08/24 05:22:38;;;;;;;19.35;12.85;;;16.90;99.90;;;;;;5055941;28;20400;-70
2023/08/24 05:25:04;;;;;;;19.85;12.60;;;17.00;99.90;;;;;;5055177;28;20027;-70
2023/08/24 05:27:30;;;;;;;22.20;12.95;;;17.10;99.90;;;;;;5055039;28;20036;-70
2023/08/24 05:29:56;;;;;;;19.77;12.50;;;17.20;99.90;;;;;;5055722;28;20017;-70
2023/08/24 05:32:22;;;;;;;18.90;12.35;;;17.30;99.90;;;;;;5055502;28;20023;-70
2023/08/24 05:34:47;;;;;;;23.38;12.95;;;17.40;99.90;;;;;;5055186;28;20025;-70
2023/08/24 05:37:13;;;;;;;18.40;12.70;;;17.40;99.90;;;;;;5055187;28;20021;-69
2023/08/24 05:39:38;;;;;;;17.90;12.70;;;17.40;99.90;;;;;;5055324;28;20078;-70
2023/08/24 05:42:05;;;;;;;19.92;12.95;;;17.50;99.90;;;;;;5053941;28;20025;-70
2023/08/24 05:44:30;;;;;;;19.38;12.40;;;17.60;99.90;;;;;;5054988;28;20032;-69
2023/08/24 05:46:56;;;;;;;20.33;13.05;;;17.60;99.90;;;;;;5054989;28;20016;-70
2023/08/24 05:49:22;;;;;;;23.20;13.20;;;17.70;99.90;;;;;;5054585;28;20048;-70
2023/08/24 05:51:50;;;;;;;24.95;13.27;;;17.70;99.90;;;;;;5054518;28;20124;-70
2023/08/24 05:54:19;;;;;;;20.30;12.70;;;17.70;99.90;;;;;;5054788;28;20074;-70
2023/08/24 05:56:48;;;;;;;23.63;12.15;;;17.70;99.90;;;;;;5055234;28;20025;-70
2023/08/24 05:59:14;;;;;;;17.58;12.43;;;17.70;99.90;;;;;;5054474;28;20017;-70
2023/08/24 06:01:41;;;;;;;21.25;12.00;;;17.80;99.90;;;;;;5054987;28;20053;-70
2023/08/24 06:04:08;;;;;;;19.58;12.60;;;17.80;99.90;;;;;;5054558;28;20028;-70
2023/08/24 06:06:34;;;;;;;20.45;12.35;;;17.80;99.90;;;;;;5054590;28;20415;-70
2023/08/24 06:09:00;;;;;;;20.08;11.68;;;17.90;99.90;;;;;;5054238;28;20025;-70
2023/08/24 06:11:25;;;;;;;16.13;11.38;;;17.90;99.90;;;;;;5054708;28;20040;-70
2023/08/24 06:13:53;;;;;;;24.90;12.13;;;18.00;99.90;;;;;;5054960;28;20063;-70
2023/08/24 06:16:19;;;;;;;19.13;12.45;;;18.10;99.90;;;;;;5054598;28;20021;-70
2023/08/24 06:18:45;;;;;;;17.13;12.05;;;18.20;99.90;;;;;;5054019;28;20029;-69
2023/08/24 06:21:10;;;;;;;22.60;12.13;;;18.40;99.90;;;;;;5054233;28;20029;-69
2023/08/24 06:23:36;;;;;;;20.90;12.50;;;18.50;99.90;;;;;;5054243;28;20024;-69
2023/08/24 06:26:02;;;;;;;27.98;13.20;;;18.80;99.90;;;;;;5054539;28;20063;-69
2023/08/24 06:28:28;;;;;;;30.48;13.10;;;19.20;99.90;;;;;;5054247;28;20017;-69
2023/08/24 06:30:55;;;;;;;21.42;12.65;;;19.50;99.90;;;;;;5054124;28;20029;-69
2023/08/24 06:33:21;;;;;;;18.95;12.18;;;19.80;99.90;;;;;;5054763;28;20032;-69
2023/08/24 06:35:46;;;;;;;19.92;11.70;;;20.00;99.90;;;;;;5054167;28;20021;-69
2023/08/24 06:38:15;;;;;;;21.90;10.68;;;20.10;99.90;;;;;;5053368;28;20016;-69
2023/08/24 06:40:41;;;;;;;17.23;11.07;;;20.10;99.90;;;;;;5054256;28;20392;-68
2023/08/24 06:43:07;;;;;;;20.95;11.23;;;20.20;99.90;;;;;;5053976;28;20035;-68
2023/08/24 06:45:32;;;;;;;17.63;11.50;;;20.40;99.90;;;;;;5054241;28;20025;-68
2023/08/24 06:47:58;;;;;;;17.60;11.93;;;20.50;99.90;;;;;;5053759;28;20048;-69
2023/08/24 06:50:23;;;;;;;22.88;11.65;;;20.60;99.90;;;;;;5054381;28;20053;-69
2023/08/24 06:52:49;;;;;;;17.35;12.13;;;20.60;99.90;;;;;;5053852;28;20408;-68
2023/08/24 06:55:15;;;;;;;13.82;10.07;;;20.60;99.90;;;;;;5053683;28;20412;-69
2023/08/24 06:57:41;;;;;;;17.52;11.05;;;20.50;99.90;;;;;;5053757;28;20108;-68
2023/08/24 07:00:09;;;;;;;19.23;11.15;;;20.50;99.90;;;;;;5053728;28;20052;-68
2023/08/24 07:02:36;;;;;;;21.83;11.10;;;20.40;99.90;;;;;;5053699;28;20029;-68
2023/08/24 07:05:04;;;;;;;16.70;10.15;;;20.50;99.90;;;;;;5053621;28;20048;-69
2023/08/24 07:07:30;;;;;;;18.75;10.73;;;20.70;99.90;;;;;;5053658;28;20080;-70
2023/08/24 07:09:56;;;;;;;16.90;10.65;;;21.00;99.90;;;;;;5054074;28;20102;-69
2023/08/24 07:12:21;;;;;;;17.70;11.10;;;21.20;99.90;;;;;;5054028;28;20044;-70
2023/08/24 07:14:47;;;;;;;18.45;10.98;;;21.40;99.90;;;;;;5054116;28;20331;-68
2023/08/24 07:17:13;;;;;;;14.25;10.40;;;21.50;99.90;;;;;;5053534;28;20021;-69
2023/08/24 07:19:38;;;;;;;15.07;11.18;;;21.60;99.90;;;;;;5053162;28;20060;-69
2023/08/24 07:22:04;;;;;;;20.67;11.02;;;21.60;99.90;;;;;;5053448;28;20043;-69
2023/08/24 07:24:30;;;;;;;18.58;11.15;;;21.80;99.90;;;;;;5053408;28;20065;-69
2023/08/24 07:26:55;;;;;;;13.40;10.70;;;21.90;99.90;;;;;;5053390;28;20078;-69
2023/08/24 07:29:21;;;;;;;15.48;10.02;;;22.00;99.90;;;;;;5053720;28;20021;-69
2023/08/24 07:31:47;;;;;;;15.25;9.45;;;22.00;99.90;;;;;;5052971;28;20033;-69
2023/08/24 07:34:14;;;;;;;15.98;10.20;;;22.10;99.90;;;;;;5053045;28;20075;-69
2023/08/24 07:36:40;;;;;;;14.55;9.63;;;22.20;99.90;;;;;;5053245;28;20521;-69
2023/08/24 07:39:05;;;;;;;14.98;9.85;;;22.30;99.90;;;;;;5053938;28;20064;-69
2023/08/24 07:41:31;;;;;;;17.17;9.98;;;22.40;99.90;;;;;;5053922;28;20057;-70
2023/08/24 07:43:57;;;;;;;12.13;8.82;;;22.40;99.90;;;;;;5053312;28;20047;-69
2023/08/24 07:46:22;;;;;;;15.38;10.20;;;22.50;99.90;;;;;;5053275;28;20021;-69
2023/08/24 07:48:48;;;;;;;16.45;9.48;;;22.40;99.90;;;;;;5053579;28;20040;-69
2023/08/24 07:51:14;;;;;;;17.58;9.48;;;22.40;99.90;;;;;;5057430;28;20033;-70
2023/08/24 07:53:39;;;;;;;16.45;9.82;;;22.40;99.90;;;;;;5057091;28;20053;-69
2023/08/24 07:56:05;;;;;;;15.90;8.93;;;22.40;99.90;;;;;;5057382;28;20021;-69
2023/08/24 07:58:31;;;;;;;13.77;8.40;;;22.60;99.90;;;;;;5057578;28;20032;-70
2023/08/24 08:00:58;;;;;;;14.27;8.02;;;22.90;99.90;;;;;;5056967;28;20167;-69
2023/08/24 08:03:24;;;;;;;17.23;8.75;;;23.20;99.90;;;;;;5057267;28;20024;-69
2023/08/24 08:05:50;;;;;;;11.60;8.05;;;23.60;99.90;;;;;;5056524;28;20028;-68
2023/08/24 08:08:16;;;;;;;22.25;8.02;;;23.80;99.90;;;;;;5056775;28;20104;-69
2023/08/24 08:10:42;;;;;;;11.50;7.82;;;24.00;99.90;;;;;;5056710;28;20051;-69
2023/08/24 08:13:11;;;;;;;18.27;8.30;;;24.10;99.90;;;;;;5056701;28;20025;-69
2023/08/24 08:15:38;;;;;;;12.32;7.72;;;24.20;99.90;;;;;;5056980;28;20052;-69
2023/08/24 08:18:04;;;;;;;22.20;7.88;;;24.10;99.90;;;;;;5056378;28;20469;-69
2023/08/24 08:20:30;;;;;;;11.65;7.75;;;24.10;99.90;;;;;;5056567;28;20025;-68
2023/08/24 08:22:56;;;;;;;13.60;7.53;;;24.00;99.90;;;;;;5056260;28;20457;-69
2023/08/24 08:25:22;;;;;;;16.02;7.75;;;24.00;99.90;;;;;;5056302;28;20107;-70
2023/08/24 08:27:48;;;;;;;14.18;8.57;;;24.00;99.90;;;;;;5056491;28;20024;-70
2023/08/24 08:30:15;;;;;;;13.98;8.10;;;24.30;99.90;;;;;;5057231;28;20108;-70
2023/08/24 08:32:41;;;;;;;13.55;7.60;;;24.50;99.90;;;;;;5056390;28;20089;-69
2023/08/24 08:35:08;;;;;;;14.30;8.70;;;24.70;99.90;;;;;;5056373;28;20028;-69
2023/08/24 08:37:34;;;;;;;11.15;8.52;;;24.90;99.90;;;;;;5056311;28;20017;-69
2023/08/24 08:39:59;;;;;;;10.80;7.70;;;25.00;99.90;;;;;;5056157;28;20151;-69
2023/08/24 08:42:25;;;;;;;13.27;8.25;;;25.20;99.90;;;;;;5056511;28;20385;-69
2023/08/24 08:44:53;;;;;;;16.42;8.13;;;25.30;99.90;;;;;;5056148;28;20021;-69
2023/08/24 08:47:20;;;;;;;16.00;8.02;;;25.40;99.90;;;;;;5056442;28;20049;-68
2023/08/24 08:49:48;;;;;;;13.10;7.20;;;25.60;99.90;;;;;;5056570;28;20057;-69
2023/08/24 08:52:14;;;;;;;12.82;7.53;;;25.80;99.90;;;;;;5055571;28;20377;-69
2023/08/24 08:54:43;;;;;;;18.13;7.75;;;26.00;99.90;;;;;;5055839;28;20025;-69
2023/08/24 08:57:09;;;;;;;13.80;7.43;;;26.10;99.90;;;;;;5055999;28;20365;-69
2023/08/24 08:59:36;;;;;;;20.27;7.82;;;26.10;99.90;;;;;;5055779;28;20025;-72
2023/08/24 09:02:03;;;;;;;14.63;7.60;;;26.10;99.90;;;;;;5055016;28;20392;-71
2023/08/24 09:04:33;;;;;;;12.95;7.55;;;26.20;99.90;;;;;;5055818;28;20099;-70
2023/08/24 09:07:03;;;;;;;13.88;7.32;;;26.20;99.90;;;;;;5056147;28;20068;-69
2023/08/24 09:09:29;;;;;;;13.85;7.00;;;26.30;99.90;;;;;;5055911;28;20515;-69
2023/08/24 09:11:54;;;;;;;16.13;8.43;;;26.40;99.90;;;;;;5055972;28;20045;-64
2023/08/24 09:14:20;;;;;;;11.60;7.72;;;26.50;99.90;;;;;;5056181;28;20024;-66
2023/08/24 09:16:46;;;;;;;11.32;7.93;;;26.50;99.90;;;;;;5055895;28;20039;-68
2023/08/24 09:19:12;;;;;;;13.48;7.55;;;26.60;99.90;;;;;;5055830;28;20103;-67
2023/08/24 09:21:39;;;;;;;12.30;7.13;;;26.80;99.90;;;;;;5055597;28;20033;-65
2023/08/24 09:24:06;;;;;;;13.80;7.68;;;26.90;99.90;;;;;;5055416;28;20031;-65
2023/08/24 09:26:34;;;;;;;11.68;7.25;;;27.00;99.90;;;;;;5055424;28;20462;-65
2023/08/24 09:29:10;;;;;;;11.68;7.05;;;27.10;99.90;;;;;;5055332;28;20029;-65
2023/08/24 09:31:39;;;;;;;12.13;7.63;;;27.20;99.90;;;;;;5055583;28;20095;-65
2023/08/24 09:34:06;;;;;;;13.07;7.53;;;27.20;99.90;;;;;;5055178;28;20020;-65
2023/08/24 09:36:35;;;;;;;9.00;7.00;;;27.40;99.90;;;;;;5055226;28;20044;-66
2023/08/24 09:39:04;;;;;;;16.35;8.23;;;27.60;99.90;;;;;;5055382;28;20021;-65
2023/08/24 09:41:44;;;;;;;10.90;7.90;;;27.80;99.90;;;;;;5054844;28;20036;-65
2023/08/24 09:44:13;;;;;;;13.80;7.30;;;28.10;99.90;;;;;;5055072;28;20519;-68
2023/08/24 09:46:40;;;;;;;13.57;7.80;;;28.20;99.90;;;;;;5055257;28;20028;-67
2023/08/24 09:49:07;;;;;;;11.77;7.65;;;28.20;99.90;;;;;;5054391;28;20535;-67
2023/08/24 09:51:34;;;;;;;11.05;7.53;;;28.20;99.90;;;;;;5055321;28;20044;-67
2023/08/24 09:54:06;;;;;;;12.63;7.18;;;28.40;99.90;;;;;;5054841;28;20079;-67
2023/08/24 09:56:40;;;;;;;17.42;7.90;;;28.60;99.90;;;;;;5055574;28;20350;-68
2023/08/24 09:59:13;;;;;;;10.57;8.00;;;28.70;99.90;;;;;;5054953;28;20021;-65
2023/08/24 10:01:43;;;;;;;9.50;7.38;;;28.80;99.90;;;;;;5054639;28;20036;-65
2023/08/24 10:04:11;;;;;;;14.70;7.57;;;28.70;99.90;;;;;;5055241;28;20028;-64
2023/08/24 10:06:39;;;;;;;12.13;7.97;;;28.80;99.90;;;;;;5053226;28;20116;-64
2023/08/24 10:09:07;;;;;;;12.60;6.97;;;28.90;99.90;;;;;;5054498;28;20073;-64
2023/08/24 10:11:38;;;;;;;12.50;7.32;;;29.00;99.90;;;;;;5054313;28;20033;-63
2023/08/24 10:14:29;;;;;;;14.55;7.60;;;29.00;99.90;;;;;;5055086;28;20021;-63
2023/08/24 10:16:55;;;;;;;13.15;7.43;;;29.10;99.90;;;;;;5054412;28;20028;-63
2023/08/24 10:19:23;;;;;;;16.75;7.40;;;29.10;99.90;;;;;;5053905;28;20028;-64
2023/08/24 10:21:53;;;;;;;11.02;7.20;;;29.10;99.90;;;;;;5054278;28;20037;-64
2023/08/24 10:24:20;;;;;;;13.80;7.05;;;29.30;99.90;;;;;;5054265;28;20029;-64
2023/08/24 10:26:47;;;;;;;9.63;6.97;;;29.40;99.90;;;;;;5054193;28;20025;-64
2023/08/24 10:29:14;;;;;;;10.23;6.90;;;29.70;99.90;;;;;;5054561;28;20022;-64
2023/08/24 10:31:41;;;;;;;10.70;7.50;;;29.90;99.90;;;;;;5054026;28;20033;-65
2023/08/24 10:34:08;;;;;;;13.30;7.90;;;29.80;99.90;;;;;;5053809;28;20107;-64
2023/08/24 10:36:34;;;;;;;12.07;7.35;;;29.70;99.90;;;;;;5054010;28;20021;-63
2023/08/24 10:39:05;;;;;;;8.55;7.05;;;29.90;99.90;;;;;;5054723;28;20031;-64
2023/08/24 10:41:49;;;;;;;17.17;7.88;;;30.00;99.90;;;;;;5054739;28;20074;-63
2023/08/24 10:44:35;;;;;;;15.93;7.10;;;30.00;99.90;;;;;;5054185;28;20365;-62
2023/08/24 10:47:15;;;;;;;21.13;7.82;;;30.10;99.90;;;;;;5054127;28;20021;-64
2023/08/24 10:49:59;;;;;;;14.20;8.73;;;30.20;99.90;;;;;;5053306;28;20048;-64
2023/08/24 10:52:36;;;;;;;16.17;7.18;;;30.40;99.90;;;;;;5054284;28;20033;-63
2023/08/24 10:55:04;;;;;;;13.30;7.32;;;30.50;99.90;;;;;;5053726;28;20045;-62
2023/08/24 10:57:38;;;;;;;21.52;7.28;;;30.70;99.90;;;;;;5053737;28;20017;-63
2023/08/24 11:00:09;;;;;;;14.65;7.53;;;30.90;99.90;;;;;;5053756;28;20032;-63
2023/08/24 11:02:49;;;;;;;22.80;8.25;;;31.00;99.30;;;;;;5053846;28;20368;-63
2023/08/24 11:05:28;;;;;;;29.42;7.47;;;30.80;99.90;;;;;;5053660;28;20032;-63
2023/08/24 11:07:59;;;;;;;20.65;8.05;;;30.60;98.90;;;;;;5053945;28;20031;-63
2023/08/24 11:10:31;;;;;;;18.13;7.90;;;30.60;99.90;;;;;;5053333;28;20029;-63
2023/08/24 11:13:11;;;;;;;11.27;7.20;;;30.80;99.90;;;;;;5053836;28;20024;-63
2023/08/24 11:15:40;;;;;;;12.68;7.70;;;31.00;99.40;;;;;;5053409;28;20045;-64
2023/08/24 11:18:27;;;;;;;11.27;7.45;;;31.10;99.40;;;;;;5053153;28;20024;-63
2023/08/24 11:20:57;;;;;;;10.93;7.40;;;31.20;98.70;;;;;;5052206;28;20509;-64
2023/08/24 11:23:24;;;;;;;22.13;7.28;;;31.10;99.30;;;;;;5053650;28;20017;-64
2023/08/24 11:25:57;;;;;;;18.75;7.32;;;31.30;99.00;;;;;;5057723;28;20057;-62
2023/08/24 11:28:24;;;;;;;13.30;7.63;;;31.40;98.30;;;;;;5057428;28;20051;-63
2023/08/24 11:30:50;;;;;;;16.65;7.60;;;31.70;98.90;;;;;;5057250;28;20029;-63
2023/08/24 11:33:20;;;;;;;10.77;7.13;;;31.80;98.30;;;;;;5057485;28;20090;-63
2023/08/24 11:35:46;;;;;;;13.65;7.45;;;31.90;97.80;;;;;;5057600;28;20024;-64
2023/08/24 11:38:12;;;;;;;16.23;7.68;;;32.00;97.50;;;;;;5057219;28;20442;-63
2023/08/24 11:40:39;;;;;;;15.13;7.80;;;31.90;97.60;;;;;;5057143;28;20469;-63
2023/08/24 11:43:08;;;;;;;17.70;7.30;;;31.80;97.60;;;;;;5055944;28;20104;-63
2023/08/24 11:45:36;;;;;;;10.85;7.13;;;31.60;98.00;;;;;;5057086;28;20153;-63
2023/08/24 11:48:04;;;;;;;12.63;7.00;;;31.80;97.40;;;;;;5057440;28;20029;-63
2023/08/24 11:50:30;;;;;;;16.77;7.43;;;32.00;97.10;;;;;;5056739;28;20048;-63
2023/08/24 11:52:56;;;;;;;9.52;7.00;;;32.10;96.10;;;;;;5056742;28;20377;-63
2023/08/24 11:55:25;;;;;;;12.40;7.28;;;32.40;96.80;;;;;;5057276;28;20017;-63
2023/08/24 11:57:51;;;;;;;18.02;8.45;;;32.70;96.40;;;;;;5056931;28;20020;-63
2023/08/24 12:00:20;;;;;;;12.20;7.60;;;32.50;95.60;;;;;;5057117;28;20017;-64
2023/08/24 12:02:46;;;;;;;13.10;7.35;;;32.60;96.70;;;;;;5056752;28;20021;-63
2023/08/24 12:05:23;;;;;;;14.50;7.50;;;32.90;96.00;;;;;;5057058;28;20408;-64
2023/08/24 12:07:49;;;;;;;10.38;7.57;;;32.60;95.40;;;;;;5056683;28;20083;-63
2023/08/24 12:10:15;;;;;;;12.95;6.93;;;32.60;95.70;;;;;;5056567;28;20349;-63
2023/08/24 12:12:41;;;;;;;9.35;6.90;;;32.50;94.40;;;;;;5056605;28;20021;-63
2023/08/24 12:15:07;;;;;;;11.43;6.85;;;32.50;94.20;;;;;;5056812;28;20047;-63
2023/08/24 12:17:43;;;;;;;12.98;7.25;;;32.60;94.20;;;;;;5056379;28;20025;-63
2023/08/24 12:20:21;;;;;;;8.95;6.72;;;32.90;95.50;;;;;;5056485;28;20029;-63
2023/08/24 12:22:54;;;;;;;9.85;6.68;;;33.20;94.60;;;;;;5056977;28;20025;-64
2023/08/24 12:25:23;;;;;;;13.85;6.82;;;33.40;94.00;;;;;;5056500;28;20020;-63
2023/08/24 12:28:09;;;;;;;11.48;7.18;;;33.60;93.80;;;;;;5056305;28;20446;-63
2023/08/24 12:30:52;;;;;;;8.88;6.40;;;33.70;94.20;;;;;;5056290;28;20025;-63
2023/08/24 12:33:26;;;;;;;10.23;6.30;;;33.80;94.90;;;;;;5056459;28;20025;-63